createdAt,value
2019-01-15T00:00:28.914Z,1.20
2019-01-15T00:01:33.470Z,1.30
2019-01-15T00:02:38.168Z,1.30
2019-01-15T00:03:42.788Z,1.30
2019-01-15T00:04:47.429Z,1.30
2019-01-15T00:05:52.095Z,1.30
2019-01-15T00:06:56.670Z,1.40
2019-01-15T00:08:01.289Z,1.40
2019-01-15T00:09:08.314Z,1.40
2019-01-15T00:10:14.012Z,1.40
2019-01-15T00:11:18.683Z,1.40
2019-01-15T00:12:23.314Z,1.50
2019-01-15T00:13:27.991Z,1.50
2019-01-15T00:14:32.538Z,1.50
2019-01-15T00:15:37.182Z,1.60
2019-01-15T00:16:42.720Z,1.60
2019-01-15T00:17:47.252Z,1.70
2019-01-15T00:18:51.971Z,1.70
2019-01-15T00:19:56.529Z,1.70
2019-01-15T00:21:01.134Z,1.70
2019-01-15T00:22:05.823Z,1.70
2019-01-15T00:23:10.526Z,1.70
2019-01-15T00:24:15.204Z,1.70
2019-01-15T00:25:20.751Z,1.70
2019-01-15T00:26:25.329Z,1.80
2019-01-15T00:27:29.930Z,1.80
2019-01-15T00:28:34.635Z,1.80
2019-01-15T00:29:39.243Z,1.80
2019-01-15T00:30:43.799Z,1.80
2019-01-15T00:31:48.492Z,1.80
2019-01-15T00:32:53.087Z,1.80
2019-01-15T00:33:57.642Z,1.80
2019-01-15T00:35:02.259Z,1.80
2019-01-15T00:36:06.803Z,1.80
2019-01-15T00:37:11.414Z,1.80
2019-01-15T00:38:16.090Z,1.80
2019-01-15T00:39:20.675Z,1.90
2019-01-15T00:40:25.259Z,1.90
2019-01-15T00:41:29.890Z,1.90
2019-01-15T00:42:34.497Z,1.90
2019-01-15T00:43:39.070Z,2.00
2019-01-15T00:44:43.666Z,2.00
2019-01-15T00:45:48.258Z,2.00
2019-01-15T00:46:52.838Z,2.00
2019-01-15T00:47:57.485Z,2.00
2019-01-15T00:49:02.069Z,2.00
2019-01-15T00:50:08.131Z,2.00
2019-01-15T00:51:12.698Z,2.00
2019-01-15T00:52:17.763Z,2.00
2019-01-15T00:53:22.330Z,2.00
2019-01-15T00:54:26.926Z,2.00
2019-01-15T00:55:31.494Z,2.00
2019-01-15T00:56:36.033Z,1.90
2019-01-15T00:57:40.634Z,2.00
2019-01-15T00:58:45.250Z,2.00
2019-01-15T00:59:49.795Z,2.00
2019-01-15T01:00:54.350Z,2.00
2019-01-15T01:01:58.939Z,2.00
2019-01-15T01:03:04.343Z,1.90
2019-01-15T01:04:08.923Z,2.00
2019-01-15T01:05:15.327Z,2.00
2019-01-15T01:06:19.963Z,2.00
2019-01-15T01:07:24.558Z,1.90
2019-01-15T01:08:29.210Z,1.90
2019-01-15T01:09:33.773Z,1.90
2019-01-15T01:10:38.338Z,1.90
2019-01-15T01:11:43.023Z,1.90
2019-01-15T01:12:47.743Z,1.90
2019-01-15T01:13:52.337Z,1.90
2019-01-15T01:14:56.936Z,2.00
2019-01-15T01:16:01.518Z,1.90
2019-01-15T01:17:06.134Z,2.00
2019-01-15T01:18:10.710Z,2.00
2019-01-15T01:19:15.327Z,2.00
2019-01-15T01:20:22.211Z,2.00
2019-01-15T01:21:26.756Z,2.00
2019-01-15T01:22:31.310Z,1.90
2019-01-15T01:23:35.871Z,1.90
2019-01-15T01:24:40.392Z,1.90
2019-01-15T01:25:45.931Z,1.90
2019-01-15T01:26:50.591Z,1.90
2019-01-15T01:27:55.231Z,1.90
2019-01-15T01:28:59.809Z,1.90
2019-01-15T01:30:07.738Z,1.90
2019-01-15T01:31:12.319Z,1.90
2019-01-15T01:32:16.896Z,1.90
2019-01-15T01:33:21.454Z,1.90
2019-01-15T01:34:26.030Z,1.90
2019-01-15T01:35:30.616Z,1.90
2019-01-15T01:36:35.170Z,1.90
2019-01-15T01:37:39.741Z,1.90
2019-01-15T01:38:44.289Z,1.90
2019-01-15T01:39:48.864Z,2.00
2019-01-15T01:40:53.514Z,1.90
2019-01-15T01:41:58.221Z,2.00
2019-01-15T01:43:02.899Z,2.00
2019-01-15T01:44:07.520Z,2.00
2019-01-15T01:45:12.848Z,2.00
2019-01-15T01:46:17.428Z,2.00
2019-01-15T01:47:21.976Z,2.00
2019-01-15T01:48:26.541Z,2.00
2019-01-15T01:49:31.218Z,2.00
2019-01-15T01:50:35.842Z,2.00
2019-01-15T01:51:40.372Z,2.00
2019-01-15T01:52:45.106Z,2.00
2019-01-15T01:53:49.897Z,2.00
2019-01-15T01:54:55.070Z,2.00
2019-01-15T01:55:59.935Z,1.90
2019-01-15T01:57:04.497Z,1.90
2019-01-15T01:58:09.112Z,1.90
2019-01-15T01:59:13.732Z,2.00
2019-01-15T02:00:21.778Z,2.00
2019-01-15T02:01:26.334Z,2.00
2019-01-15T02:02:30.948Z,2.10
2019-01-15T02:03:35.521Z,2.10
2019-01-15T02:04:40.077Z,2.10
2019-01-15T02:05:44.691Z,2.10
2019-01-15T02:06:49.266Z,2.10
2019-01-15T02:07:54.801Z,2.00
2019-01-15T02:08:59.388Z,2.00
2019-01-15T02:10:04.651Z,2.00
2019-01-15T02:11:09.206Z,2.00
2019-01-15T02:12:13.852Z,2.00
2019-01-15T02:13:18.392Z,2.00
2019-01-15T02:14:22.955Z,2.00
2019-01-15T02:15:27.538Z,2.00
2019-01-15T02:16:32.096Z,2.00
2019-01-15T02:17:36.794Z,1.90
2019-01-15T02:18:45.047Z,1.90
2019-01-15T02:19:52.202Z,1.90
2019-01-15T02:20:57.360Z,1.90
2019-01-15T02:22:01.990Z,1.90
2019-01-15T02:23:06.522Z,2.00
2019-01-15T02:24:11.199Z,1.90
2019-01-15T02:25:15.988Z,1.90
2019-01-15T02:26:20.544Z,1.90
2019-01-15T02:27:25.288Z,2.00
2019-01-15T02:28:29.892Z,2.00
2019-01-15T02:29:34.470Z,2.00
2019-01-15T02:30:39.085Z,2.00
2019-01-15T02:31:43.672Z,2.00
2019-01-15T02:32:48.398Z,2.00
2019-01-15T02:33:53.378Z,1.90
2019-01-15T02:34:57.962Z,1.90
2019-01-15T02:36:02.614Z,1.90
2019-01-15T02:37:07.182Z,2.00
2019-01-15T02:38:11.768Z,2.00
2019-01-15T02:39:16.345Z,2.00
2019-01-15T02:40:20.964Z,2.10
2019-01-15T02:41:25.548Z,2.10
2019-01-15T02:42:30.226Z,2.20
2019-01-15T02:43:34.808Z,2.20
2019-01-15T02:44:39.427Z,2.20
2019-01-15T02:45:44.167Z,2.30
2019-01-15T02:46:48.749Z,2.30
2019-01-15T02:47:53.320Z,2.30
2019-01-15T02:48:57.906Z,2.30
2019-01-15T02:50:02.523Z,2.30
2019-01-15T02:51:07.166Z,2.30
2019-01-15T02:52:11.725Z,2.30
2019-01-15T02:53:16.282Z,2.40
2019-01-15T02:54:21.807Z,2.40
2019-01-15T02:55:26.551Z,2.40
2019-01-15T02:56:31.165Z,2.40
2019-01-15T02:57:36.121Z,2.40
2019-01-15T02:58:40.707Z,2.40
2019-01-15T02:59:45.282Z,2.40
2019-01-15T03:00:49.855Z,2.40
2019-01-15T03:01:54.388Z,2.50
2019-01-15T03:02:58.934Z,2.50
2019-01-15T03:04:03.642Z,2.50
2019-01-15T03:05:08.438Z,2.50
2019-01-15T03:06:12.999Z,2.50
2019-01-15T03:07:17.661Z,2.50
2019-01-15T03:08:22.235Z,2.50
2019-01-15T03:09:26.823Z,2.50
2019-01-15T03:10:31.625Z,2.50
2019-01-15T03:11:36.246Z,2.50
2019-01-15T03:12:42.301Z,2.50
2019-01-15T03:13:46.845Z,2.50
2019-01-15T03:14:51.462Z,2.50
2019-01-15T03:15:56.154Z,2.50
2019-01-15T03:17:00.788Z,2.50
2019-01-15T03:18:05.504Z,2.50
2019-01-15T03:19:10.188Z,2.50
2019-01-15T03:20:15.630Z,2.50
2019-01-15T03:21:20.170Z,2.50
2019-01-15T03:22:24.839Z,2.50
2019-01-15T03:23:29.456Z,2.50
2019-01-15T03:24:34.065Z,2.40
2019-01-15T03:25:38.600Z,2.40
2019-01-15T03:26:43.245Z,2.40
2019-01-15T03:27:47.851Z,2.40
2019-01-15T03:28:52.423Z,2.40
2019-01-15T03:29:56.981Z,2.40
2019-01-15T03:31:01.549Z,2.30
2019-01-15T03:32:06.109Z,2.30
2019-01-15T03:33:10.756Z,2.20
2019-01-15T03:34:15.328Z,2.20
2019-01-15T03:35:19.950Z,2.20
2019-01-15T03:36:24.467Z,2.10
2019-01-15T03:37:29.033Z,2.10
2019-01-15T03:38:33.762Z,2.10
2019-01-15T03:39:38.574Z,2.10
2019-01-15T03:40:43.183Z,2.00
2019-01-15T03:41:47.805Z,2.00
2019-01-15T03:42:52.667Z,2.00
2019-01-15T03:43:57.247Z,2.00
2019-01-15T03:45:01.861Z,2.00
2019-01-15T03:46:06.447Z,1.90
2019-01-15T03:47:11.029Z,1.90
2019-01-15T03:48:15.655Z,1.90
2019-01-15T03:49:20.257Z,1.90
2019-01-15T03:50:24.902Z,1.90
2019-01-15T03:51:30.498Z,1.80
2019-01-15T03:52:35.214Z,1.80
2019-01-15T03:53:39.804Z,1.80
2019-01-15T03:54:44.522Z,1.80
2019-01-15T03:55:49.081Z,1.90
2019-01-15T03:56:54.038Z,1.80
2019-01-15T03:57:58.605Z,1.90
2019-01-15T03:59:03.202Z,1.90
2019-01-15T04:00:12.034Z,1.90
2019-01-15T04:01:16.723Z,1.90
2019-01-15T04:02:21.433Z,1.90
2019-01-15T04:03:25.971Z,2.00
2019-01-15T04:04:30.679Z,2.00
2019-01-15T04:05:35.270Z,2.00
2019-01-15T04:06:39.886Z,2.00
2019-01-15T04:07:44.911Z,2.00
2019-01-15T04:08:49.463Z,2.00
2019-01-15T04:09:54.122Z,2.00
2019-01-15T04:10:58.671Z,2.10
2019-01-15T04:12:03.278Z,2.10
2019-01-15T04:13:11.467Z,2.10
2019-01-15T04:14:14.554Z,2.20
2019-01-15T04:15:19.136Z,2.20
2019-01-15T04:16:23.707Z,2.20
2019-01-15T04:17:28.293Z,2.20
2019-01-15T04:18:32.855Z,2.30
2019-01-15T04:19:37.426Z,2.20
2019-01-15T04:20:42.015Z,2.30
2019-01-15T04:21:46.631Z,2.30
2019-01-15T04:22:51.341Z,2.30
2019-01-15T04:23:55.900Z,2.30
2019-01-15T04:25:00.526Z,2.30
2019-01-15T04:26:05.221Z,2.30
2019-01-15T04:27:09.804Z,2.30
2019-01-15T04:28:14.421Z,2.30
2019-01-15T04:29:18.976Z,2.30
2019-01-15T04:30:24.176Z,2.30
2019-01-15T04:31:28.774Z,2.40
2019-01-15T04:32:33.351Z,2.30
2019-01-15T04:33:37.979Z,2.40
2019-01-15T04:34:42.581Z,2.40
2019-01-15T04:35:47.159Z,2.30
2019-01-15T04:36:51.714Z,2.30
2019-01-15T04:37:56.253Z,2.20
2019-01-15T04:39:00.849Z,2.20
2019-01-15T04:40:06.456Z,2.20
2019-01-15T04:41:11.044Z,2.20
2019-01-15T04:42:15.580Z,2.20
2019-01-15T04:43:20.215Z,2.20
2019-01-15T04:44:24.879Z,2.20
2019-01-15T04:45:29.462Z,2.20
2019-01-15T04:46:34.109Z,2.20
2019-01-15T04:47:38.771Z,2.20
2019-01-15T04:48:43.421Z,2.20
2019-01-15T04:49:47.959Z,2.20
2019-01-15T04:50:53.147Z,2.20
2019-01-15T04:51:57.692Z,2.20
2019-01-15T04:53:02.870Z,2.20
2019-01-15T04:54:07.575Z,2.20
2019-01-15T04:55:12.322Z,2.20
2019-01-15T04:56:16.884Z,2.20
2019-01-15T04:57:21.519Z,2.30
2019-01-15T04:58:26.126Z,2.30
2019-01-15T04:59:31.826Z,2.30
2019-01-15T05:00:36.451Z,2.30
2019-01-15T05:01:41.215Z,2.30
2019-01-15T05:02:45.966Z,2.30
2019-01-15T05:03:50.542Z,2.40
2019-01-15T05:04:55.103Z,2.40
2019-01-15T05:05:59.643Z,2.40
2019-01-15T05:07:04.287Z,2.40
2019-01-15T05:08:08.987Z,2.40
2019-01-15T05:09:13.763Z,2.50
2019-01-15T05:10:18.439Z,2.50
2019-01-15T05:11:24.034Z,2.50
2019-01-15T05:12:28.614Z,2.50
2019-01-15T05:13:33.184Z,2.50
2019-01-15T05:14:37.832Z,2.50
2019-01-15T05:15:42.402Z,2.50
2019-01-15T05:16:46.997Z,2.60
2019-01-15T05:17:52.553Z,2.60
2019-01-15T05:18:57.138Z,2.60
2019-01-15T05:20:01.737Z,2.60
2019-01-15T05:21:06.378Z,2.60
2019-01-15T05:22:10.960Z,2.60
2019-01-15T05:23:15.550Z,2.60
2019-01-15T05:24:20.122Z,2.70
2019-01-15T05:25:24.720Z,2.70
2019-01-15T05:26:29.333Z,2.70
2019-01-15T05:27:34.008Z,2.70
2019-01-15T05:28:38.562Z,2.70
2019-01-15T05:29:43.133Z,2.80
2019-01-15T05:30:47.728Z,2.80
2019-01-15T05:31:52.366Z,2.80
2019-01-15T05:32:56.952Z,2.80
2019-01-15T05:34:01.592Z,2.80
2019-01-15T05:35:06.378Z,2.80
2019-01-15T05:36:10.966Z,2.80
2019-01-15T05:37:15.508Z,2.80
2019-01-15T05:38:20.077Z,2.90
2019-01-15T05:39:24.693Z,2.90
2019-01-15T05:40:29.322Z,2.90
2019-01-15T05:41:33.972Z,2.90
2019-01-15T05:42:38.607Z,2.90
2019-01-15T05:43:43.199Z,3.00
2019-01-15T05:44:47.870Z,3.00
2019-01-15T05:45:52.481Z,3.00
2019-01-15T05:46:57.056Z,3.00
2019-01-15T05:48:07.683Z,3.00
2019-01-15T05:49:12.395Z,3.00
2019-01-15T05:50:19.805Z,3.00
2019-01-15T05:51:34.328Z,3.00
2019-01-15T05:52:38.952Z,3.00
2019-01-15T05:53:43.643Z,3.10
2019-01-15T05:54:48.217Z,3.00
2019-01-15T05:55:52.774Z,3.10
2019-01-15T05:56:57.341Z,3.10
2019-01-15T05:58:01.926Z,3.10
2019-01-15T05:59:06.758Z,3.10
2019-01-15T06:00:11.714Z,3.10
2019-01-15T06:01:16.315Z,3.10
2019-01-15T06:02:21.851Z,3.10
2019-01-15T06:03:26.447Z,3.10
2019-01-15T06:04:31.032Z,3.10
2019-01-15T06:05:35.638Z,3.10
2019-01-15T06:06:40.186Z,3.10
2019-01-15T06:07:44.736Z,3.10
2019-01-15T06:08:49.316Z,3.10
2019-01-15T06:09:53.874Z,3.10
2019-01-15T06:10:58.442Z,3.10
2019-01-15T06:12:03.013Z,3.10
2019-01-15T06:13:07.606Z,3.10
2019-01-15T06:14:12.250Z,3.10
2019-01-15T06:15:17.062Z,3.10
2019-01-15T06:16:21.591Z,3.20
2019-01-15T06:17:26.144Z,3.10
2019-01-15T06:18:30.692Z,3.10
2019-01-15T06:19:35.271Z,3.10
2019-01-15T06:20:39.930Z,3.10
2019-01-15T06:21:44.482Z,3.10
2019-01-15T06:22:49.225Z,3.10
2019-01-15T06:23:53.773Z,3.10
2019-01-15T06:24:58.320Z,3.10
2019-01-15T06:26:02.913Z,3.20
2019-01-15T06:27:11.044Z,3.20
2019-01-15T06:28:15.798Z,3.20
2019-01-15T06:29:22.058Z,3.20
2019-01-15T06:30:26.662Z,3.20
2019-01-15T06:31:31.220Z,3.20
2019-01-15T06:32:35.773Z,3.20
2019-01-15T06:33:40.334Z,3.20
2019-01-15T06:34:44.939Z,3.20
2019-01-15T06:35:49.583Z,3.20
2019-01-15T06:36:54.149Z,3.20
2019-01-15T06:37:58.919Z,3.20
2019-01-15T06:39:05.062Z,3.20
2019-01-15T06:40:11.422Z,3.20
2019-01-15T06:41:16.092Z,3.20
2019-01-15T06:42:20.659Z,3.20
2019-01-15T06:43:25.248Z,3.30
2019-01-15T06:44:29.864Z,3.20
2019-01-15T06:45:34.423Z,3.30
2019-01-15T06:46:38.981Z,3.30
2019-01-15T06:47:43.637Z,3.30
2019-01-15T06:48:48.176Z,3.30
2019-01-15T06:49:54.078Z,3.30
2019-01-15T06:50:58.761Z,3.30
2019-01-15T06:52:03.320Z,3.30
2019-01-15T06:53:08.024Z,3.30
2019-01-15T06:54:14.223Z,3.30
2019-01-15T06:55:19.298Z,3.30
2019-01-15T06:56:23.844Z,3.30
2019-01-15T06:57:28.406Z,3.30
2019-01-15T06:58:32.942Z,3.30
2019-01-15T06:59:37.583Z,3.30
2019-01-15T07:00:42.146Z,3.30
2019-01-15T07:01:46.769Z,3.30
2019-01-15T07:02:51.398Z,3.30
2019-01-15T07:03:55.961Z,3.30
2019-01-15T07:05:00.663Z,3.30
2019-01-15T07:06:05.265Z,3.30
2019-01-15T07:07:09.831Z,3.40
2019-01-15T07:08:14.515Z,3.40
2019-01-15T07:09:19.238Z,3.40
2019-01-15T07:10:26.473Z,3.40
2019-01-15T07:11:31.018Z,3.40
2019-01-15T07:12:35.708Z,3.40
2019-01-15T07:13:40.307Z,3.40
2019-01-15T07:14:44.914Z,3.40
2019-01-15T07:15:51.326Z,3.40
2019-01-15T07:16:56.028Z,3.40
2019-01-15T07:18:00.656Z,3.40
2019-01-15T07:19:06.298Z,3.40
2019-01-15T07:20:12.350Z,3.40
2019-01-15T07:21:16.927Z,3.40
2019-01-15T07:22:21.537Z,3.40
2019-01-15T07:23:26.161Z,3.40
2019-01-15T07:24:30.765Z,3.40
2019-01-15T07:25:35.350Z,3.40
2019-01-15T07:26:39.942Z,3.40
2019-01-15T07:27:44.546Z,3.40
2019-01-15T07:28:49.118Z,3.40
2019-01-15T07:29:53.710Z,3.50
2019-01-15T07:30:59.859Z,3.50
2019-01-15T07:32:04.578Z,3.50
2019-01-15T07:33:09.703Z,3.50
2019-01-15T07:34:14.310Z,3.50
2019-01-15T07:35:18.926Z,3.50
2019-01-15T07:36:23.564Z,3.50
2019-01-15T07:37:28.179Z,3.50
2019-01-15T07:38:32.766Z,3.50
2019-01-15T07:39:37.323Z,3.50
2019-01-15T07:40:41.896Z,3.50
2019-01-15T07:41:46.462Z,3.50
2019-01-15T07:42:51.081Z,3.50
2019-01-15T07:43:55.722Z,3.50
2019-01-15T07:45:00.298Z,3.50
2019-01-15T07:46:05.058Z,3.60
2019-01-15T07:47:09.735Z,3.60
2019-01-15T07:48:14.380Z,3.60
2019-01-15T07:49:19.015Z,3.60
2019-01-15T07:50:23.675Z,3.60
2019-01-15T07:51:28.256Z,3.60
2019-01-15T07:52:32.885Z,3.50
2019-01-15T07:53:37.512Z,3.60
2019-01-15T07:54:42.128Z,3.50
2019-01-15T07:55:46.734Z,3.50
2019-01-15T07:56:51.318Z,3.50
2019-01-15T07:57:55.911Z,3.50
2019-01-15T07:59:00.484Z,3.50
2019-01-15T08:00:06.969Z,3.60
2019-01-15T08:01:12.626Z,3.60
2019-01-15T08:02:17.266Z,3.60
2019-01-15T08:03:21.902Z,3.60
2019-01-15T08:04:26.467Z,3.60
2019-01-15T08:05:31.220Z,3.60
2019-01-15T08:06:35.851Z,3.50
2019-01-15T08:07:40.468Z,3.50
2019-01-15T08:08:45.055Z,3.50
2019-01-15T08:09:49.649Z,3.60
2019-01-15T08:10:57.074Z,3.60
2019-01-15T08:12:00.530Z,3.50
2019-01-15T08:13:05.974Z,3.50
2019-01-15T08:14:12.160Z,3.60
2019-01-15T08:15:19.346Z,3.60
2019-01-15T08:16:23.928Z,3.60
2019-01-15T08:17:28.550Z,3.60
2019-01-15T08:18:33.141Z,3.60
2019-01-15T08:19:37.694Z,3.60
2019-01-15T08:20:42.292Z,3.60
2019-01-15T08:21:46.831Z,3.60
2019-01-15T08:22:51.434Z,3.60
2019-01-15T08:23:56.003Z,3.60
2019-01-15T08:25:00.563Z,3.60
2019-01-15T08:26:05.231Z,3.60
2019-01-15T08:27:09.849Z,3.50
2019-01-15T08:28:14.460Z,3.60
2019-01-15T08:29:18.999Z,3.60
2019-01-15T08:30:26.030Z,3.60
2019-01-15T08:31:30.614Z,3.50
2019-01-15T08:32:35.208Z,3.50
2019-01-15T08:33:39.742Z,3.50
2019-01-15T08:34:44.345Z,3.50
2019-01-15T08:35:48.931Z,3.50
2019-01-15T08:36:53.600Z,3.50
2019-01-15T08:37:58.253Z,3.40
2019-01-15T08:39:02.848Z,3.40
2019-01-15T08:40:09.652Z,3.40
2019-01-15T08:41:14.214Z,3.40
2019-01-15T08:42:18.809Z,3.40
2019-01-15T08:43:23.380Z,3.40
2019-01-15T08:44:28.124Z,3.40
2019-01-15T08:45:32.707Z,3.40
2019-01-15T08:46:37.367Z,3.40
2019-01-15T08:47:46.801Z,3.40
2019-01-15T08:48:51.388Z,3.40
2019-01-15T08:49:55.950Z,3.40
2019-01-15T08:51:00.676Z,3.40
2019-01-15T08:52:05.326Z,3.40
2019-01-15T08:53:10.398Z,3.50
2019-01-15T08:54:14.980Z,3.40
2019-01-15T08:55:19.530Z,3.40
2019-01-15T08:56:24.262Z,3.40
2019-01-15T08:57:28.827Z,3.40
2019-01-15T08:58:33.431Z,3.40
2019-01-15T08:59:38.026Z,3.40
2019-01-15T09:00:42.584Z,3.40
2019-01-15T09:01:47.140Z,3.40
2019-01-15T09:02:51.710Z,3.40
2019-01-15T09:03:56.368Z,3.40
2019-01-15T09:05:00.994Z,3.40
2019-01-15T09:06:05.560Z,3.40
2019-01-15T09:07:10.192Z,3.50
2019-01-15T09:08:14.770Z,3.50
2019-01-15T09:09:19.514Z,3.50
2019-01-15T09:10:24.245Z,3.50
2019-01-15T09:11:30.509Z,3.50
2019-01-15T09:12:35.334Z,3.50
2019-01-15T09:13:39.993Z,3.50
2019-01-15T09:14:44.546Z,3.50
2019-01-15T09:15:49.109Z,3.60
2019-01-15T09:16:53.660Z,3.60
2019-01-15T09:17:58.437Z,3.50
2019-01-15T09:19:03.063Z,3.50
2019-01-15T09:20:10.409Z,3.50
2019-01-15T09:21:15.123Z,3.50
2019-01-15T09:22:19.758Z,3.50
2019-01-15T09:23:24.453Z,3.50
2019-01-15T09:24:30.112Z,3.50
2019-01-15T09:25:34.676Z,3.50
2019-01-15T09:26:39.317Z,3.50
2019-01-15T09:27:44.059Z,3.50
2019-01-15T09:28:48.889Z,3.50
2019-01-15T09:29:53.513Z,3.50
2019-01-15T09:30:58.093Z,3.50
2019-01-15T09:32:02.676Z,3.50
2019-01-15T09:33:07.321Z,3.50
2019-01-15T09:34:11.995Z,3.50
2019-01-15T09:35:16.769Z,3.50
2019-01-15T09:36:21.384Z,3.40
2019-01-15T09:37:26.016Z,3.40
2019-01-15T09:38:30.580Z,3.40
2019-01-15T09:39:35.140Z,3.40
2019-01-15T09:40:39.810Z,3.40
2019-01-15T09:41:44.520Z,3.40
2019-01-15T09:42:49.563Z,3.40
2019-01-15T09:43:54.141Z,3.40
2019-01-15T09:44:58.866Z,3.40
2019-01-15T09:46:03.639Z,3.40
2019-01-15T09:47:08.228Z,3.40
2019-01-15T09:48:18.228Z,3.40
2019-01-15T09:49:22.911Z,3.40
2019-01-15T09:50:28.442Z,3.40
2019-01-15T09:51:33.035Z,3.40
2019-01-15T09:52:37.663Z,3.40
2019-01-15T09:53:42.247Z,3.40
2019-01-15T09:54:46.830Z,3.50
2019-01-15T09:55:51.499Z,3.50
2019-01-15T09:56:56.088Z,3.50
2019-01-15T09:58:00.723Z,3.50
2019-01-15T09:59:05.782Z,3.50
2019-01-15T10:00:10.732Z,3.60
2019-01-15T10:01:15.325Z,3.60
2019-01-15T10:02:19.903Z,3.60
2019-01-15T10:03:24.631Z,3.60
2019-01-15T10:04:29.296Z,3.60
2019-01-15T10:05:34.006Z,3.60
2019-01-15T10:06:38.629Z,3.60
2019-01-15T10:07:43.352Z,3.60
2019-01-15T10:08:47.963Z,3.50
2019-01-15T10:09:52.553Z,3.60
2019-01-15T10:10:57.158Z,3.50
2019-01-15T10:12:01.694Z,3.60
2019-01-15T10:13:06.372Z,3.60
2019-01-15T10:14:10.998Z,3.50
2019-01-15T10:15:16.810Z,3.50
2019-01-15T10:16:21.388Z,3.50
2019-01-15T10:17:25.970Z,3.60
2019-01-15T10:18:30.552Z,3.60
2019-01-15T10:19:35.271Z,3.50
2019-01-15T10:20:39.880Z,3.60
2019-01-15T10:21:44.844Z,3.60
2019-01-15T10:22:49.910Z,3.60
2019-01-15T10:23:54.619Z,3.60
2019-01-15T10:24:59.286Z,3.60
2019-01-15T10:26:04.044Z,3.60
2019-01-15T10:27:08.733Z,3.60
2019-01-15T10:28:13.374Z,3.60
2019-01-15T10:29:18.608Z,3.60
2019-01-15T10:30:36.778Z,3.60
2019-01-15T10:32:24.928Z,3.60
2019-01-15T10:33:37.753Z,3.60
2019-01-15T10:34:43.412Z,3.50
2019-01-15T10:35:57.439Z,3.60
2019-01-15T10:37:00.782Z,3.60
2019-01-15T10:38:05.448Z,3.60
2019-01-15T10:39:11.742Z,3.60
2019-01-15T10:40:16.431Z,3.60
2019-01-15T10:41:21.148Z,3.60
2019-01-15T10:42:25.782Z,3.70
2019-01-15T10:43:34.207Z,3.70
2019-01-15T10:44:38.930Z,3.70
2019-01-15T10:45:43.547Z,3.80
2019-01-15T10:46:48.149Z,3.80
2019-01-15T10:47:52.716Z,3.80
2019-01-15T10:48:57.354Z,3.80
2019-01-15T10:50:01.920Z,3.90
2019-01-15T10:51:06.508Z,3.90
2019-01-15T10:52:11.049Z,3.80
2019-01-15T10:53:15.609Z,3.90
2019-01-15T10:54:20.151Z,3.90
2019-01-15T10:55:24.792Z,3.90
2019-01-15T10:56:29.402Z,3.90
2019-01-15T10:57:33.954Z,4.00
2019-01-15T10:58:38.655Z,3.90
2019-01-15T10:59:43.218Z,4.00
2019-01-15T11:00:47.812Z,3.90
2019-01-15T11:01:52.354Z,4.00
2019-01-15T11:02:56.940Z,4.00
2019-01-15T11:04:01.557Z,4.10
2019-01-15T11:05:07.280Z,4.10
2019-01-15T11:06:11.922Z,4.10
2019-01-15T11:07:16.476Z,4.10
2019-01-15T11:08:21.154Z,4.10
2019-01-15T11:09:25.814Z,4.10
2019-01-15T11:10:30.405Z,4.20
2019-01-15T11:11:34.985Z,4.20
2019-01-15T11:12:39.545Z,4.20
2019-01-15T11:13:44.156Z,4.20
2019-01-15T11:14:55.879Z,4.20
2019-01-15T11:15:55.220Z,4.20
2019-01-15T11:16:59.892Z,4.20
2019-01-15T11:18:04.732Z,4.20
2019-01-15T11:19:09.414Z,4.20
2019-01-15T11:20:15.926Z,4.20
2019-01-15T11:21:20.467Z,4.30
2019-01-15T11:22:25.184Z,4.30
2019-01-15T11:23:29.816Z,4.30
2019-01-15T11:24:34.372Z,4.30
2019-01-15T11:25:39.031Z,4.30
2019-01-15T11:26:43.732Z,4.30
2019-01-15T11:27:48.401Z,4.30
2019-01-15T11:28:53.038Z,4.40
2019-01-15T11:29:57.602Z,4.30
2019-01-15T11:31:02.142Z,4.30
2019-01-15T11:32:07.724Z,4.30
2019-01-15T11:33:12.321Z,4.30
2019-01-15T11:34:16.954Z,4.30
2019-01-15T11:35:21.538Z,4.30
2019-01-15T11:36:26.094Z,4.40
2019-01-15T11:37:30.729Z,4.40
2019-01-15T11:38:35.354Z,4.40
2019-01-15T11:39:39.996Z,4.40
2019-01-15T11:40:45.557Z,4.50
2019-01-15T11:41:50.126Z,4.50
2019-01-15T11:42:54.714Z,4.50
2019-01-15T11:43:59.309Z,4.40
2019-01-15T11:45:04.529Z,4.40
2019-01-15T11:46:09.139Z,4.50
2019-01-15T11:47:13.708Z,4.50
2019-01-15T11:48:18.255Z,4.50
2019-01-15T11:49:22.823Z,4.50
2019-01-15T11:50:27.516Z,4.50
2019-01-15T11:51:32.110Z,4.50
2019-01-15T11:52:36.680Z,4.50
2019-01-15T11:53:41.284Z,4.50
2019-01-15T11:54:45.887Z,4.50
2019-01-15T11:55:50.494Z,4.40
2019-01-15T11:56:55.123Z,4.40
2019-01-15T11:57:59.840Z,4.40
2019-01-15T11:59:05.316Z,4.40
2019-01-15T12:00:15.117Z,4.40
2019-01-15T12:01:37.579Z,4.40
2019-01-15T12:02:48.199Z,4.40
2019-01-15T12:03:59.917Z,4.40
2019-01-15T12:05:24.439Z,4.40
2019-01-15T12:06:44.952Z,4.40
2019-01-15T12:08:06.099Z,4.30
2019-01-15T12:09:29.362Z,4.30
2019-01-15T12:10:47.329Z,4.30
2019-01-15T12:12:03.659Z,4.30
2019-01-15T12:13:36.486Z,4.40
2019-01-15T12:14:53.465Z,4.40
2019-01-15T12:16:15.562Z,4.30
2019-01-15T12:17:32.327Z,4.30
2019-01-15T12:18:54.773Z,4.30
2019-01-15T12:20:17.235Z,4.30
2019-01-15T12:21:48.467Z,4.30
2019-01-15T12:23:24.010Z,4.30
2019-01-15T12:24:55.457Z,4.40
2019-01-15T12:26:16.993Z,4.40
2019-01-15T12:27:34.295Z,4.40
2019-01-15T12:29:00.807Z,4.40
2019-01-15T12:30:20.203Z,4.40
2019-01-15T12:31:48.617Z,4.40
2019-01-15T12:33:20.240Z,4.40
2019-01-15T12:34:45.585Z,4.40
2019-01-15T12:36:12.046Z,4.40
2019-01-15T12:37:29.287Z,4.40
2019-01-15T12:38:46.227Z,4.50
2019-01-15T12:40:09.570Z,4.50
2019-01-15T12:41:27.227Z,4.50
2019-01-15T12:42:49.640Z,4.50
2019-01-15T12:44:18.613Z,4.60
2019-01-15T12:45:54.609Z,4.60
2019-01-15T12:47:13.276Z,4.60
2019-01-15T12:48:43.701Z,4.60
2019-01-15T12:50:16.530Z,4.60
2019-01-15T12:51:38.743Z,4.60
2019-01-15T12:53:02.528Z,4.60
2019-01-15T12:54:24.169Z,4.60
2019-01-15T12:55:56.764Z,4.70
2019-01-15T12:57:23.267Z,4.60
2019-01-15T12:58:50.282Z,4.60
2019-01-15T13:00:12.643Z,4.60
2019-01-15T13:01:39.137Z,4.60
2019-01-15T13:03:17.716Z,4.60
2019-01-15T13:04:31.305Z,4.60
2019-01-15T13:06:06.376Z,4.60
2019-01-15T13:07:28.634Z,4.60
2019-01-15T13:08:45.535Z,4.60
2019-01-15T13:09:59.436Z,4.60
2019-01-15T13:11:18.242Z,4.50
2019-01-15T13:12:38.132Z,4.60
2019-01-15T13:13:58.072Z,4.50
2019-01-15T13:15:29.269Z,4.50
2019-01-15T13:16:43.062Z,4.50
2019-01-15T13:18:07.387Z,4.50
2019-01-15T13:19:31.284Z,4.50
2019-01-15T13:20:55.500Z,4.50
2019-01-15T13:22:28.433Z,4.50
2019-01-15T13:23:51.676Z,4.50
2019-01-15T13:25:14.686Z,4.50
2019-01-15T13:26:38.169Z,4.50
2019-01-15T13:27:52.621Z,4.50
2019-01-15T13:29:22.562Z,4.50
2019-01-15T13:30:56.027Z,4.50
2019-01-15T13:32:06.202Z,4.50
2019-01-15T13:33:19.555Z,4.50
2019-01-15T13:34:43.445Z,4.50
2019-01-15T13:35:58.360Z,4.50
2019-01-15T13:37:26.342Z,4.50
2019-01-15T13:38:39.130Z,4.50
2019-01-15T13:40:03.066Z,4.50
2019-01-15T13:41:29.640Z,4.50
2019-01-15T13:42:44.464Z,4.40
2019-01-15T13:44:14.375Z,4.50
2019-01-15T13:45:41.798Z,4.40
2019-01-15T13:47:00.784Z,4.40
2019-01-15T13:48:25.447Z,4.40
2019-01-15T13:49:47.546Z,4.40
2019-01-15T13:51:01.391Z,4.30
2019-01-15T13:52:17.179Z,4.30
2019-01-15T13:53:39.282Z,4.30
2019-01-15T13:55:03.215Z,4.30
2019-01-15T13:56:20.024Z,4.30
2019-01-15T13:57:55.234Z,4.20
2019-01-15T13:59:21.931Z,4.20
2019-01-15T14:00:48.480Z,4.30
2019-01-15T14:02:05.333Z,4.30
2019-01-15T14:03:27.406Z,4.30
2019-01-15T14:04:59.290Z,4.30
2019-01-15T14:06:21.648Z,4.30
2019-01-15T14:07:39.365Z,4.30
2019-01-15T14:09:03.981Z,4.30
2019-01-15T14:10:23.183Z,4.30
2019-01-15T14:11:53.063Z,4.30
2019-01-15T14:13:09.635Z,4.30
2019-01-15T14:14:28.545Z,4.20
2019-01-15T14:15:50.466Z,4.30
2019-01-15T14:17:23.502Z,4.30
2019-01-15T14:18:39.212Z,4.30
2019-01-15T14:20:01.619Z,4.30
2019-01-15T14:21:24.128Z,4.30
2019-01-15T14:22:46.590Z,4.30
2019-01-15T14:24:13.721Z,4.30
2019-01-15T14:25:34.978Z,4.30
2019-01-15T14:26:48.883Z,4.30
2019-01-15T14:28:08.638Z,4.40
2019-01-15T14:29:25.563Z,4.40
2019-01-15T14:30:47.870Z,4.40
2019-01-15T14:32:01.780Z,4.40
2019-01-15T14:33:15.866Z,4.40
2019-01-15T14:34:31.550Z,4.40
2019-01-15T14:36:00.483Z,4.40
2019-01-15T14:37:23.115Z,4.40
2019-01-15T14:38:54.041Z,4.40
2019-01-15T14:40:14.754Z,4.40
2019-01-15T14:41:37.163Z,4.40
2019-01-15T14:42:54.427Z,4.40
2019-01-15T14:44:16.718Z,4.40
2019-01-15T14:46:00.452Z,4.40
2019-01-15T14:47:24.403Z,4.40
2019-01-15T14:48:46.515Z,4.40
2019-01-15T14:50:06.733Z,4.40
2019-01-15T14:51:18.461Z,4.40
2019-01-15T14:52:49.347Z,4.40
2019-01-15T14:54:08.850Z,4.40
2019-01-15T14:55:31.635Z,4.40
2019-01-15T14:56:47.399Z,4.40
2019-01-15T14:58:15.084Z,4.40
2019-01-15T14:59:36.280Z,4.40
2019-01-15T15:01:05.289Z,4.40
2019-01-15T15:02:28.511Z,4.50
2019-01-15T15:03:59.683Z,4.50